Time;durP1;ratioP1;P1;durP2;ratioP2;P2;SDS_P1;SDS_P2;PMS_P1;PMS_P2;Temp;Humidity;BMP_temperature;BMP_pressure;BME280_temperature;BME280_humidity;BME280_pressure;Samples;Min_cycle;Max_cycle;Signal;HPM_P1;HPM_P2
2022/10/21 00:00:36;;;;;;;4.53;4.22;;;;;;;4.19;89.70;101216.34;1689799;84;21066;-73
2022/10/21 00:03:04;;;;;;;5.17;4.50;;;;;;;4.09;89.80;101213.13;1683102;84;21470;-72
2022/10/21 00:05:32;;;;;;;5.27;3.77;;;;;;;4.04;90.19;101221.89;1690312;84;21131;-75
2022/10/21 00:08:00;;;;;;;5.23;4.73;;;;;;;4.04;90.58;101221.89;1688673;84;21032;-73
2022/10/21 00:10:27;;;;;;;4.73;4.33;;;;;;;4.03;90.76;101222.88;1687804;84;22297;-75
2022/10/21 00:12:53;;;;;;;7.45;4.75;;;;;;;4.02;90.79;101220.35;1691639;84;21071;-74
2022/10/21 00:15:21;;;;;;;5.23;3.37;;;;;;;3.99;90.94;101217.95;1689514;84;21556;-75
2022/10/21 00:17:48;;;;;;;4.93;4.17;;;;;;;3.95;91.06;101209.44;1687485;84;21017;-72
2022/10/21 00:20:15;;;;;;;6.00;3.93;;;;;;;3.90;91.24;101207.68;1686086;84;21035;-75
2022/10/21 00:22:43;;;;;;;4.20;3.80;;;;;;;3.87;91.46;101202.64;1692265;84;21554;-75
2022/10/21 00:25:09;;;;;;;5.17;3.47;;;;;;;3.83;91.40;101202.53;1685173;84;21034;-74
2022/10/21 00:27:37;;;;;;;4.47;4.10;;;;;;;3.82;91.58;101209.59;1692266;84;21578;-74
2022/10/21 00:30:07;;;;;;;3.77;3.45;;;;;;;3.81;91.62;101203.14;1687258;84;21068;-76
2022/10/21 00:32:34;;;;;;;5.23;3.50;;;;;;;3.79;91.57;101199.80;1683309;84;21055;-76
2022/10/21 00:35:00;;;;;;;4.03;3.70;;;;;;;3.76;91.48;101205.30;1667064;85;21057;-75
2022/10/21 00:37:29;;;;;;;3.92;3.60;;;;;;;3.68;91.58;101215.97;1690973;84;21067;-76
2022/10/21 00:39:56;;;;;;;3.43;3.23;;;;;;;3.66;91.86;101222.34;1665319;86;21049;-74
2022/10/21 00:42:31;;;;;;;3.70;3.40;;;;;;;3.61;91.95;101227.96;1663752;86;21111;-74
2022/10/21 00:45:09;;;;;;;3.80;3.47;;;;;;;3.59;92.16;101225.93;1678331;84;21161;-72
2022/10/21 00:47:43;;;;;;;4.17;3.10;;;;;;;3.58;92.41;101221.62;1661488;86;21586;-73
2022/10/21 00:50:18;;;;;;;4.50;2.70;;;;;;;3.55;92.48;101223.18;1657300;86;21589;-73
2022/10/21 00:52:45;;;;;;;2.90;2.20;;;;;;;3.53;92.61;101215.88;1663786;84;21034;-73
2022/10/21 00:55:12;;;;;;;1.77;1.67;;;;;;;3.51;92.72;101215.16;1633614;87;21680;-71
2022/10/21 00:57:39;;;;;;;3.13;2.90;;;;;;;3.42;92.72;101214.56;1664618;85;21441;-73
2022/10/21 01:00:06;;;;;;;3.90;3.17;;;;;;;3.43;92.57;101222.36;1662617;85;22391;-73
2022/10/21 01:02:32;;;;;;;3.00;2.80;;;;;;;3.41;92.88;101229.55;1664479;86;21172;-73
2022/10/21 01:05:02;;;;;;;4.30;3.00;;;;;;;3.41;93.09;101231.31;1715932;83;21457;-75
2022/10/21 01:07:30;;;;;;;2.40;2.00;;;;;;;3.41;93.25;101234.81;1718270;82;21513;-76
2022/10/21 01:09:57;;;;;;;16.70;2.90;;;;;;;3.40;92.99;101229.17;1660088;86;21717;-74
2022/10/21 01:12:34;;;;;;;4.75;2.20;;;;;;;3.37;92.72;101226.80;1628033;86;21219;-74
2022/10/21 01:15:21;;;;;;;2.27;2.17;;;;;;;3.34;92.73;101227.02;1712019;83;21135;-75
2022/10/21 01:17:56;;;;;;;2.58;2.37;;;;;;;3.33;92.93;101216.11;1718721;83;21119;-72
2022/10/21 01:20:52;;;;;;;2.80;2.17;;;;;;;3.31;92.84;101215.39;1685365;84;21057;-71
2022/10/21 01:23:52;;;;;;;2.50;2.30;;;;;;;3.30;92.87;101211.92;1661469;86;21078;-73
2022/10/21 01:28:05;;;;;;;2.57;2.37;;;;;;;3.35;92.79;101206.77;1782231;79;22239;-71
2022/10/21 01:30:41;;;;;;;2.10;2.00;;;;;;;3.28;92.63;101205.94;1755913;81;21299;-72
2022/10/21 01:33:46;;;;;;;2.60;2.40;;;;;;;3.25;92.48;101202.22;1721200;81;21044;-73
2022/10/21 01:36:42;;;;;;;2.37;2.10;;;;;;;3.23;92.52;101212.53;1649906;85;21585;-73
2022/10/21 01:39:19;;;;;;;2.33;1.87;;;;;;;3.16;92.62;101217.42;1643814;86;21153;-73
2022/10/21 01:42:13;;;;;;;2.93;2.73;;;;;;;3.09;92.77;101230.73;1643572;86;21128;-73
2022/10/21 01:44:54;;;;;;;2.50;2.20;;;;;;;3.05;92.69;101235.84;1643741;86;21013;-70
2022/10/21 01:47:34;;;;;;;2.07;1.97;;;;;;;3.00;92.76;101238.02;1620981;86;21116;-72
2022/10/21 01:50:14;;;;;;;2.10;1.97;;;;;;;2.98;93.01;101247.83;1657862;84;21041;-74
2022/10/21 01:52:44;;;;;;;3.63;2.33;;;;;;;2.93;93.09;101255.58;1656543;85;22557;-73
2022/10/21 01:55:15;;;;;;;2.23;2.03;;;;;;;2.91;93.06;101246.95;1632552;85;21065;-73
2022/10/21 01:57:46;;;;;;;2.30;2.10;;;;;;;2.91;93.28;101247.44;1656684;85;21158;-74
2022/10/21 02:00:12;;;;;;;2.60;1.90;;;;;;;2.89;93.18;101238.82;1642215;86;21037;-71
2022/10/21 02:02:43;;;;;;;2.62;2.30;;;;;;;2.86;92.92;101240.36;1662244;86;21003;-72
2022/10/21 02:05:22;;;;;;;3.07;2.80;;;;;;;2.82;92.51;101248.13;1659600;85;21051;-73
2022/10/21 02:07:50;;;;;;;4.10;2.23;;;;;;;2.74;92.59;101248.71;1656222;85;21064;-74
2022/10/21 02:10:18;;;;;;;3.00;2.70;;;;;;;2.71;92.83;101248.93;1656877;85;21571;-74
2022/10/21 02:12:49;;;;;;;5.73;2.63;;;;;;;2.71;92.96;101248.48;1657040;85;21096;-72
2022/10/21 02:15:17;;;;;;;2.83;2.63;;;;;;;2.71;93.08;101246.30;1658330;85;21064;-73
2022/10/21 02:17:53;;;;;;;2.50;2.40;;;;;;;2.71;93.02;101254.20;1656379;85;21042;-73
2022/10/21 02:20:24;;;;;;;3.27;2.97;;;;;;;2.71;92.84;101257.69;1656104;85;21035;-73
2022/10/21 02:22:51;;;;;;;3.57;3.27;;;;;;;2.71;92.80;101258.14;1657774;85;21070;-74
2022/10/21 02:25:22;;;;;;;2.70;2.50;;;;;;;2.67;92.80;101256.21;1656916;85;21083;-73
2022/10/21 02:27:49;;;;;;;3.00;2.80;;;;;;;2.65;92.69;101259.92;1657420;86;21547;-73
2022/10/21 02:30:15;;;;;;;;;;;;;;;2.65;92.68;101265.19;1659679;86;21046;-73
2022/10/21 02:33:00;;;;;;;2.95;2.42;;;;;;;2.65;92.51;101262.56;1655209;85;20214;-74
2022/10/21 02:35:35;;;;;;;2.10;1.90;;;;;;;2.61;92.61;101265.06;1639405;86;21091;-74
2022/10/21 02:38:29;;;;;;;3.10;2.43;;;;;;;2.63;92.52;101259.20;1666098;84;21306;-73
2022/10/21 02:41:00;;;;;;;3.17;2.77;;;;;;;2.60;92.23;101253.70;1637721;86;21288;-74
2022/10/21 02:43:31;;;;;;;2.43;2.23;;;;;;;2.58;91.97;101261.33;1624369;87;21549;-73
2022/10/21 02:46:08;;;;;;;2.50;2.30;;;;;;;2.56;91.85;101262.75;1625794;87;21128;-74
2022/10/21 02:48:37;;;;;;;2.03;1.87;;;;;;;2.56;91.78;101260.61;1627333;87;21033;-74
2022/10/21 02:51:06;;;;;;;2.57;2.23;;;;;;;2.53;91.68;101269.09;1627691;87;21120;-74
2022/10/21 02:53:35;;;;;;;4.20;2.63;;;;;;;2.50;91.62;101264.05;1618858;87;21388;-74
2022/10/21 02:56:03;;;;;;;3.63;2.20;;;;;;;2.47;91.54;101264.78;1627091;87;21022;-72
2022/10/21 02:58:30;;;;;;;2.37;2.17;;;;;;;2.44;91.61;101269.77;1626676;87;21052;-75
2022/10/21 03:00:56;;;;;;;;;;;;;;;2.44;91.79;101275.03;1640013;85;21033;-72
2022/10/21 03:03:23;;;;;;;3.97;2.83;;;;;;;2.41;91.79;101271.33;1655902;85;20116;-73
2022/10/21 03:05:50;;;;;;;3.03;2.80;;;;;;;2.36;92.11;101271.30;1647212;85;21072;-72
2022/10/21 03:08:17;;;;;;;2.93;2.73;;;;;;;2.37;92.33;101275.11;1630445;87;21437;-75
2022/10/21 03:10:43;;;;;;;3.35;3.05;;;;;;;2.38;92.37;101268.91;1618075;88;21063;-75
2022/10/21 03:13:09;;;;;;;4.08;2.70;;;;;;;2.39;92.48;101277.16;1625168;87;21147;-73
2022/10/21 03:15:35;;;;;;;3.05;2.67;;;;;;;2.40;92.45;101268.32;1626504;87;21025;-75
2022/10/21 03:18:02;;;;;;;3.85;2.85;;;;;;;2.41;92.43;101274.41;1632004;86;21087;-71
2022/10/21 03:20:29;;;;;;;3.10;2.90;;;;;;;2.41;92.40;101277.05;1635944;86;21493;-75
2022/10/21 03:22:57;;;;;;;2.70;2.50;;;;;;;2.40;92.41;101281.48;1635586;86;21830;-75
2022/10/21 03:25:23;;;;;;;4.28;3.20;;;;;;;2.37;92.29;101280.38;1635191;86;21618;-76
2022/10/21 03:27:52;;;;;;;5.37;3.53;;;;;;;2.33;92.20;101267.91;1635806;86;21088;-74
2022/10/21 03:30:18;;;;;;;6.67;3.37;;;;;;;2.31;92.41;101272.94;1664493;85;21048;-76
2022/10/21 03:32:45;;;;;;;3.52;3.25;;;;;;;2.31;92.69;101271.63;1664537;85;21008;-73
2022/10/21 03:35:11;;;;;;;4.37;3.67;;;;;;;2.32;92.77;101268.05;1628273;86;21508;-75
2022/10/21 03:37:38;;;;;;;;;;;;;;;2.29;92.73;101265.16;1659744;85;21068;-72
2022/10/21 03:40:07;;;;;;;6.23;3.63;;;;;;;2.29;92.86;101259.05;1662123;85;20414;-74
2022/10/21 03:42:35;;;;;;;4.77;4.23;;;;;;;2.27;93.11;101267.54;1684167;85;21025;-75
2022/10/21 03:45:01;;;;;;;4.90;4.50;;;;;;;2.28;93.20;101267.88;1669955;84;21064;-75
2022/10/21 03:47:27;;;;;;;4.42;4.12;;;;;;;2.27;92.95;101264.91;1647930;86;21464;-75
2022/10/21 03:49:53;;;;;;;4.95;4.45;;;;;;;2.26;92.93;101269.79;1645809;86;21584;-74
2022/10/21 03:52:19;;;;;;;9.63;5.17;;;;;;;2.24;92.87;101264.67;1647072;86;21045;-74
2022/10/21 03:54:47;;;;;;;8.97;5.50;;;;;;;2.23;92.77;101264.77;1642929;85;21506;-73
2022/10/21 03:57:14;;;;;;;10.93;7.10;;;;;;;2.20;92.61;101264.98;1665551;84;21084;-72
2022/10/21 03:59:40;;;;;;;9.23;7.17;;;;;;;2.16;92.53;101260.91;1684819;84;22567;-73
2022/10/21 04:02:06;;;;;;;9.33;6.35;;;;;;;2.12;92.67;101263.74;1684103;84;21044;-73
2022/10/21 04:04:32;;;;;;;9.48;6.08;;;;;;;2.12;92.99;101265.55;1685660;84;21065;-79
2022/10/21 04:07:00;;;;;;;9.90;7.60;;;;;;;2.11;93.21;101263.84;1697397;83;21086;-74
2022/10/21 04:09:26;;;;;;;11.93;8.40;;;;;;;2.10;93.16;101260.87;1695235;84;21048;-72
2022/10/21 04:11:52;;;;;;;18.00;13.65;;;;;;;2.08;93.17;101260.97;1696677;83;21037;-75
2022/10/21 04:14:18;;;;;;;13.88;11.97;;;;;;;2.06;93.20;101261.56;1695053;83;21054;-74
2022/10/21 04:16:45;;;;;;;13.28;10.08;;;;;;;2.02;93.20;101265.37;1697480;83;21041;-76
2022/10/21 04:19:18;;;;;;;8.17;7.27;;;;;;;1.98;93.19;101270.48;1697046;83;21092;-79
2022/10/21 04:21:46;;;;;;;10.40;8.97;;;;;;;1.95;93.04;101276.78;1695160;83;21065;-74
2022/10/21 04:24:13;;;;;;;12.23;10.03;;;;;;;1.88;93.06;101278.65;1693712;83;21064;-73
2022/10/21 04:26:41;;;;;;;12.23;8.00;;;;;;;1.84;93.28;101277.19;1694920;83;21093;-71
2022/10/21 04:29:08;;;;;;;12.80;7.83;;;;;;;1.80;93.50;101286.25;1677376;84;21054;-70
2022/10/21 04:31:36;;;;;;;11.43;9.43;;;;;;;1.81;93.93;101282.66;1687995;83;21018;-70
2022/10/21 04:34:03;;;;;;;13.17;9.07;;;;;;;1.83;94.30;101277.67;1686844;85;20985;-71
2022/10/21 04:36:31;;;;;;;9.67;7.80;;;;;;;1.86;94.60;101281.37;1688785;83;20971;-69
2022/10/21 04:38:57;;;;;;;10.08;8.05;;;;;;;1.91;94.87;101281.07;1688698;83;21522;-71
2022/10/21 04:41:24;;;;;;;14.23;10.33;;;;;;;1.93;94.56;101283.11;1688424;84;21037;-73
2022/10/21 04:43:50;;;;;;;13.20;8.38;;;;;;;1.97;94.70;101290.31;1689259;83;21007;-70
2022/10/21 04:46:19;;;;;;;14.13;9.30;;;;;;;2.02;94.86;101281.63;1688027;83;21014;-70
2022/10/21 04:48:46;;;;;;;15.07;9.90;;;;;;;2.07;94.98;101280.35;1686655;84;22058;-68
2022/10/21 04:51:13;;;;;;;17.92;10.60;;;;;;;2.13;95.13;101282.53;1684762;83;21140;-69
2022/10/21 04:53:41;;;;;;;17.53;11.87;;;;;;;2.20;94.89;101284.71;1686989;83;20975;-70
2022/10/21 04:56:07;;;;;;;19.42;12.65;;;;;;;2.19;94.36;101289.14;1689523;83;21097;-70
2022/10/21 04:58:35;;;;;;;17.53;11.03;;;;;;;2.17;94.41;101293.67;1689394;83;21077;-71
2022/10/21 05:01:01;;;;;;;21.50;13.70;;;;;;;2.18;94.60;101290.56;1686305;83;21045;-71
2022/10/21 05:03:27;;;;;;;27.75;14.98;;;;;;;2.21;94.79;101291.19;1688009;83;21006;-70
2022/10/21 05:05:54;;;;;;;21.07;13.57;;;;;;;2.27;94.80;101296.48;1687395;83;21041;-71
2022/10/21 05:08:22;;;;;;;19.87;10.73;;;;;;;2.27;94.79;101288.10;1682159;85;21078;-70
2022/10/21 05:10:59;;;;;;;13.80;8.80;;;;;;;2.28;94.89;101290.25;1659901;85;21085;-70
2022/10/21 05:13:27;;;;;;;16.93;9.23;;;;;;;2.30;94.90;101281.31;1650079;85;21149;-68
2022/10/21 05:16:01;;;;;;;16.57;11.60;;;;;;;2.36;94.90;101282.66;1675329;85;21134;-67
2022/10/21 05:18:28;;;;;;;16.53;11.00;;;;;;;2.44;94.91;101283.41;1671590;84;21081;-69
2022/10/21 05:20:56;;;;;;;13.47;9.23;;;;;;;2.50;94.57;101279.01;1675853;84;21087;-70
2022/10/21 05:23:26;;;;;;;14.93;10.17;;;;;;;2.55;94.21;101286.58;1649848;85;21574;-69
2022/10/21 05:25:53;;;;;;;12.93;9.77;;;;;;;2.59;93.99;101280.13;1597026;87;21753;-69
2022/10/21 05:28:22;;;;;;;11.47;8.13;;;;;;;2.67;94.12;101286.97;1614489;86;21130;-69
2022/10/21 05:30:49;;;;;;;9.60;7.93;;;;;;;2.76;94.18;101292.88;1589877;89;21087;-71
2022/10/21 05:33:15;;;;;;;7.92;6.65;;;;;;;2.85;93.97;101290.05;1620619;86;21035;-75
2022/10/21 05:35:55;;;;;;;7.60;5.87;;;;;;;2.93;93.59;101287.18;1629329;86;21003;-71
2022/10/21 05:38:24;;;;;;;7.00;5.80;;;;;;;3.04;93.24;101292.13;1652867;85;21077;-70
2022/10/21 05:40:51;;;;;;;4.97;4.55;;;;;;;3.12;92.74;101293.70;1637423;86;21095;-71
2022/10/21 05:43:17;;;;;;;8.70;6.27;;;;;;;3.18;91.98;101287.95;1646717;85;21031;-72
2022/10/21 05:45:44;;;;;;;7.15;5.70;;;;;;;3.24;91.04;101295.41;1633942;86;21073;-72
2022/10/21 05:48:09;;;;;;;6.50;5.60;;;;;;;3.32;90.94;101300.09;1632599;86;21026;-72
2022/10/21 05:50:36;;;;;;;9.30;5.17;;;;;;;3.42;90.70;101298.41;1651101;86;21137;-72
2022/10/21 05:53:02;;;;;;;8.18;5.83;;;;;;;3.61;90.89;101294.36;1645789;86;21106;-75
2022/10/21 05:55:28;;;;;;;6.45;5.20;;;;;;;3.85;90.46;101297.70;1664393;85;21103;-73
2022/10/21 05:57:54;;;;;;;9.60;7.42;;;;;;;4.08;88.95;101293.72;1681767;83;21535;-73
2022/10/21 06:00:22;;;;;;;8.00;6.80;;;;;;;4.27;87.29;101298.36;1653882;85;21065;-76
2022/10/21 06:02:48;;;;;;;6.80;5.12;;;;;;;4.35;85.34;101298.60;1653201;86;21007;-71
2022/10/21 06:05:15;;;;;;;7.22;6.12;;;;;;;4.45;85.52;101302.16;1656146;85;21619;-73
2022/10/21 06:07:42;;;;;;;8.03;6.50;;;;;;;4.60;85.02;101302.70;1658829;85;21081;-74
2022/10/21 06:10:10;;;;;;;7.25;6.55;;;;;;;4.70;84.09;101308.07;1658634;85;21083;-72
2022/10/21 06:12:37;;;;;;;8.47;6.00;;;;;;;4.77;83.76;101312.38;1658809;85;22079;-74
2022/10/21 06:15:07;;;;;;;7.43;6.50;;;;;;;4.79;83.31;101307.80;1650286;85;21085;-73
2022/10/21 06:17:37;;;;;;;8.80;7.03;;;;;;;4.78;82.27;101308.75;1647696;86;21037;-73
2022/10/21 06:20:07;;;;;;;6.83;5.60;;;;;;;4.74;82.50;101302.88;1622079;87;21025;-73
2022/10/21 06:22:33;;;;;;;8.20;6.83;;;;;;;4.71;83.08;101299.66;1646585;85;21021;-70
2022/10/21 06:25:00;;;;;;;7.70;6.90;;;;;;;4.71;82.22;101309.76;1645872;85;21050;-71
2022/10/21 06:27:26;;;;;;;7.83;6.80;;;;;;;4.70;82.64;101313.35;1645513;86;21144;-72
2022/10/21 06:29:53;;;;;;;8.50;7.03;;;;;;;4.75;83.03;101306.39;1656694;85;21093;-69
2022/10/21 06:32:19;;;;;;;9.08;7.25;;;;;;;4.81;83.00;101305.38;1657690;85;21520;-67
2022/10/21 06:34:45;;;;;;;13.45;6.92;;;;;;;4.93;83.13;101308.80;1659390;86;22578;-70
2022/10/21 06:37:12;;;;;;;12.23;7.50;;;;;;;5.03;82.25;101316.33;1649366;85;21045;-70
2022/10/21 06:39:38;;;;;;;13.93;6.87;;;;;;;5.10;81.87;101321.09;1627595;88;21238;-71
2022/10/21 06:42:04;;;;;;;9.83;7.03;;;;;;;5.17;81.57;101316.98;1663907;84;21054;-72
2022/10/21 06:44:41;;;;;;;10.08;7.20;;;;;;;5.23;81.67;101324.38;1671050;84;21021;-69
2022/10/21 06:47:08;;;;;;;7.37;6.67;;;;;;;5.27;81.67;101321.83;1669402;84;21721;-72
2022/10/21 06:49:34;;;;;;;8.05;7.25;;;;;;;5.32;81.21;101324.93;1671846;85;21081;-71
2022/10/21 06:52:01;;;;;;;11.78;7.72;;;;;;;5.40;81.15;101328.24;1669513;84;21615;-73
2022/10/21 06:54:29;;;;;;;10.93;7.53;;;;;;;5.48;80.91;101327.59;1669592;84;21571;-74
2022/10/21 06:56:55;;;;;;;9.57;7.03;;;;;;;5.53;80.63;101328.87;1670391;84;21106;-71
2022/10/21 06:59:21;;;;;;;9.68;7.40;;;;;;;5.55;80.56;101332.22;1671141;85;21075;-72
2022/10/21 07:01:48;;;;;;;7.22;6.10;;;;;;;5.57;81.35;101327.63;1670472;84;21595;-75
2022/10/21 07:04:14;;;;;;;7.30;6.50;;;;;;;5.60;80.08;101326.06;1670879;84;21101;-71
2022/10/21 07:06:41;;;;;;;7.60;6.17;;;;;;;5.62;80.29;101336.52;1672247;84;21387;-72
2022/10/21 07:09:09;;;;;;;7.33;6.33;;;;;;;5.68;81.02;101335.98;1668687;84;21046;-72
2022/10/21 07:11:36;;;;;;;9.30;7.58;;;;;;;5.76;80.16;101331.34;1670691;85;21042;-72
2022/10/21 07:14:03;;;;;;;8.93;7.00;;;;;;;5.78;80.44;101328.94;1671199;84;21106;-75
2022/10/21 07:16:33;;;;;;;11.20;7.47;;;;;;;5.84;80.61;101332.37;1671728;84;21042;-70
2022/10/21 07:18:59;;;;;;;7.57;6.70;;;;;;;5.97;80.70;101327.34;1670388;84;21912;-73
2022/10/21 07:21:29;;;;;;;7.77;6.97;;;;;;;6.13;80.02;101333.48;1670686;84;21373;-72
2022/10/21 07:23:58;;;;;;;9.00;7.07;;;;;;;6.27;79.42;101334.40;1670174;85;21603;-76
2022/10/21 07:26:28;;;;;;;11.73;9.43;;;;;;;6.43;78.79;101327.27;1667262;84;21038;-73
2022/10/21 07:28:57;;;;;;;11.37;8.17;;;;;;;6.55;78.18;101335.92;1668379;84;20971;-75
2022/10/21 07:31:24;;;;;;;9.20;7.63;;;;;;;6.67;78.13;101331.33;1669653;85;21835;-72
2022/10/21 07:33:51;;;;;;;12.03;8.20;;;;;;;6.81;76.81;101334.41;1651528;84;20983;-70
2022/10/21 07:36:24;;;;;;;9.37;7.13;;;;;;;6.91;76.18;101335.75;1644003;86;21138;-73
2022/10/21 07:38:52;;;;;;;8.93;6.23;;;;;;;7.07;74.80;101334.34;1654350;85;21532;-69
2022/10/21 07:41:25;;;;;;;8.80;6.77;;;;;;;7.16;73.86;101333.50;1648126;85;21041;-70
2022/10/21 07:43:53;;;;;;;8.70;5.80;;;;;;;7.24;73.22;101338.09;1638786;86;21059;-70
2022/10/21 07:46:21;;;;;;;11.33;7.30;;;;;;;7.36;73.42;101344.90;1646308;86;21685;-69
2022/10/21 07:48:49;;;;;;;8.93;6.30;;;;;;;7.48;72.29;101334.95;1642265;86;21120;-74
2022/10/21 07:51:20;;;;;;;7.43;5.83;;;;;;;7.12;71.04;101277.27;1648618;86;21111;-69
2022/10/21 07:53:50;;;;;;;6.50;5.67;;;;;;;7.46;71.19;101336.91;1648645;86;21106;-71
2022/10/21 07:56:21;;;;;;;7.70;6.77;;;;;;;7.40;71.03;101338.33;1646355;86;21008;-69
2022/10/21 07:58:47;;;;;;;7.77;5.37;;;;;;;7.37;70.77;101347.41;1647219;86;21541;-69
2022/10/21 08:01:18;;;;;;;5.62;4.97;;;;;;;7.38;70.92;101344.27;1644481;86;21038;-69
2022/10/21 08:03:45;;;;;;;6.23;4.30;;;;;;;7.38;70.77;101336.30;1645661;86;21117;-72
2022/10/21 08:06:14;;;;;;;6.67;4.00;;;;;;;7.36;71.15;101350.20;1659453;85;21050;-72
2022/10/21 08:08:43;;;;;;;5.93;3.00;;;;;;;7.33;70.88;101346.53;1638626;85;21026;-68
2022/10/21 08:11:09;;;;;;;3.73;2.80;;;;;;;7.34;70.73;101346.36;1660191;85;21014;-67
2022/10/21 08:13:40;;;;;;;2.80;2.60;;;;;;;7.37;70.04;101349.23;1659873;86;21101;-68
2022/10/21 08:16:06;;;;;;;4.97;3.87;;;;;;;7.37;70.14;101345.27;1659478;86;21056;-74
2022/10/21 08:18:34;;;;;;;10.73;6.83;;;;;;;7.35;70.49;101346.72;1659002;85;21559;-78
2022/10/21 08:21:03;;;;;;;13.03;7.83;;;;;;;7.34;70.34;101350.34;1659642;86;21534;-75
2022/10/21 08:23:30;;;;;;;3.50;3.20;;;;;;;7.31;71.05;101341.83;1683971;83;21112;-75
2022/10/21 08:25:59;;;;;;;3.03;2.67;;;;;;;7.30;70.02;101341.00;1673478;84;21051;-78
2022/10/21 08:28:28;;;;;;;8.30;4.00;;;;;;;7.26;70.01;101337.46;1675543;85;20998;-77
2022/10/21 08:31:11;;;;;;;2.77;2.53;;;;;;;7.24;70.59;101333.62;1674161;84;21673;-76
2022/10/21 08:33:38;;;;;;;6.67;5.60;;;;;;;7.26;70.59;101338.78;1673864;84;21022;-78
2022/10/21 08:36:09;;;;;;;4.93;3.80;;;;;;;7.31;70.42;101331.22;1672862;84;22518;-78
2022/10/21 08:38:36;;;;;;;3.70;3.40;;;;;;;7.37;70.06;101328.84;1670131;85;21083;-79
2022/10/21 08:41:32;;;;;;;4.40;3.12;;;;;;;7.40;70.19;101326.39;1670476;85;21058;-78
2022/10/21 08:44:06;;;;;;;4.10;3.00;;;;;;;7.43;70.29;101326.61;1642763;86;21098;-78
2022/10/21 08:46:44;;;;;;;3.40;2.30;;;;;;;7.48;70.20;101321.69;1663599;85;20980;-77
2022/10/21 08:49:16;;;;;;;3.27;1.80;;;;;;;7.53;69.13;101322.92;1653614;84;21038;-77
2022/10/21 08:52:00;;;;;;;3.23;2.07;;;;;;;7.59;69.05;101323.70;1638965;86;21173;-75
2022/10/21 08:54:44;;;;;;;4.87;2.23;;;;;;;7.68;68.29;101334.41;1633798;86;21688;-77
2022/10/21 08:57:11;;;;;;;4.20;2.90;;;;;;;7.80;68.54;101327.46;1639919;86;21041;-78
2022/10/21 08:59:41;;;;;;;6.40;4.80;;;;;;;7.97;68.50;101328.50;1640294;87;21025;-78
2022/10/21 09:02:37;;;;;;;7.90;5.27;;;;;;;8.07;67.65;101327.63;1644844;86;21630;-78
2022/10/21 09:05:46;;;;;;;7.47;5.27;;;;;;;8.11;67.52;101324.52;1657110;85;21427;-76
2022/10/21 09:08:16;;;;;;;;;;;;;;;8.13;67.27;101325.70;1636290;86;21083;-76
2022/10/21 09:11:18;;;;;;;4.67;3.90;;;;;;;8.10;65.81;101327.31;1661583;85;20470;-77
2022/10/21 09:14:18;;;;;;;4.47;3.30;;;;;;;8.00;66.69;101328.69;1650626;85;20998;-78
2022/10/21 09:17:24;;;;;;;5.37;3.37;;;;;;;8.04;66.29;101333.22;1643472;85;21034;-78
2022/10/21 09:20:12;;;;;;;2.87;2.60;;;;;;;8.04;66.19;101327.91;1642379;85;21022;-80
2022/10/21 09:23:18;;;;;;;5.77;5.17;;;;;;;8.06;65.90;101327.27;1647999;85;21118;-77
2022/10/21 09:26:17;;;;;;;6.10;4.80;;;;;;;8.05;65.42;101329.59;1647791;86;21581;-76
2022/10/21 09:28:44;;;;;;;2.80;2.53;;;;;;;7.99;65.64;101331.84;1655355;85;21631;-76
2022/10/21 09:31:17;;;;;;;2.80;2.00;;;;;;;8.01;66.12;101327.72;1631248;86;21038;-77
2022/10/21 09:33:59;;;;;;;4.20;3.80;;;;;;;8.06;65.45;101325.47;1659838;85;21022;-74
2022/10/21 09:36:33;;;;;;;5.67;4.00;;;;;;;8.10;65.00;101320.20;1655006;85;21044;-77
2022/10/21 09:39:08;;;;;;;2.70;2.50;;;;;;;8.11;65.08;101317.88;1659297;85;21126;-77
2022/10/21 09:41:40;;;;;;;3.00;2.70;;;;;;;8.13;66.10;101322.54;1656623;86;21081;-73
2022/10/21 09:44:18;;;;;;;2.90;2.53;;;;;;;8.16;65.09;101326.23;1662429;84;21435;-74
2022/10/21 09:46:46;;;;;;;;;;;;;;;8.20;65.48;101328.11;1666264;85;21107;-73
2022/10/21 09:49:35;;;;;;;6.53;3.85;;;;;;;8.28;65.75;101317.56;1658804;85;20454;-77
2022/10/21 09:52:05;;;;;;;5.13;3.20;;;;;;;8.28;64.95;101323.38;1651322;86;21136;-76
2022/10/21 09:54:36;;;;;;;5.53;3.77;;;;;;;8.29;64.46;101319.25;1658857;85;21095;-77
2022/10/21 09:57:13;;;;;;;2.77;2.57;;;;;;;8.24;64.28;101311.39;1658508;85;21087;-74
2022/10/21 09:59:57;;;;;;;3.90;2.23;;;;;;;8.20;64.64;101310.84;1632287;86;21060;-76
2022/10/21 10:02:29;;;;;;;3.67;2.83;;;;;;;8.21;64.52;101309.02;1657272;85;22022;-74
2022/10/21 10:04:56;;;;;;;4.07;2.90;;;;;;;8.20;64.47;101312.17;1649762;86;21018;-80
2022/10/21 10:07:34;;;;;;;2.63;2.40;;;;;;;8.23;64.88;101298.61;1655364;86;21703;-81
2022/10/21 10:10:03;;;;;;;3.23;2.30;;;;;;;8.26;64.66;101298.79;1661535;85;21068;-80
2022/10/21 10:12:30;;;;;;;5.10;2.87;;;;;;;8.25;64.49;101293.98;1656014;85;21073;-80
2022/10/21 10:15:00;;;;;;;2.83;2.63;;;;;;;8.06;64.40;101260.41;1660932;85;21155;-74
2022/10/21 10:17:37;;;;;;;5.53;4.27;;;;;;;8.30;64.19;101294.34;1655235;85;21585;-78
2022/10/21 10:20:10;;;;;;;3.40;2.90;;;;;;;8.30;63.50;101289.03;1660509;85;21166;-75
2022/10/21 10:22:43;;;;;;;3.83;2.60;;;;;;;8.27;64.28;101288.02;1652467;85;21132;-77
2022/10/21 10:25:20;;;;;;;2.93;2.60;;;;;;;8.28;63.63;101283.53;1654840;85;21157;-79
2022/10/21 10:28:00;;;;;;;2.67;2.47;;;;;;;8.29;63.80;101292.69;1658327;85;21578;-72
2022/10/21 10:30:44;;;;;;;4.93;4.00;;;;;;;8.32;63.35;101287.56;1656459;85;21082;-73
2022/10/21 10:33:23;;;;;;;6.13;4.10;;;;;;;8.35;63.28;101289.92;1659010;85;21284;-74
2022/10/21 10:36:02;;;;;;;4.57;3.27;;;;;;;8.36;62.68;101288.45;1659670;85;21100;-72
2022/10/21 10:38:40;;;;;;;10.47;6.70;;;;;;;8.38;63.38;101287.80;1656124;85;21052;-72
2022/10/21 10:41:12;;;;;;;11.43;6.33;;;;;;;8.11;64.47;101224.11;1655435;85;20994;-71
2022/10/21 10:43:53;;;;;;;11.30;6.53;;;;;;;8.55;63.45;101284.84;1656884;86;21014;-72
2022/10/21 10:46:28;;;;;;;5.33;3.53;;;;;;;8.58;63.44;101290.34;1654146;86;21102;-73
2022/10/21 10:48:59;;;;;;;3.73;3.07;;;;;;;8.61;62.18;101282.55;1652678;85;21038;-72
2022/10/21 10:51:36;;;;;;;7.77;3.30;;;;;;;8.58;62.43;101285.03;1633890;87;21654;-74
2022/10/21 10:54:19;;;;;;;8.53;4.12;;;;;;;8.63;61.70;101281.42;1655930;85;21031;-73
2022/10/21 10:56:59;;;;;;;14.03;8.30;;;;;;;8.62;62.33;101266.45;1626398;86;21060;-72
2022/10/21 10:59:40;;;;;;;11.60;7.10;;;;;;;8.65;62.09;101264.00;1651839;86;21021;-72
2022/10/21 11:02:12;;;;;;;15.37;7.53;;;;;;;8.65;61.95;101255.53;1647916;85;20988;-75
2022/10/21 11:05:01;;;;;;;14.93;7.63;;;;;;;8.63;62.18;101242.89;1654413;84;21052;-73
2022/10/21 11:07:47;;;;;;;14.70;9.83;;;;;;;8.64;63.06;101244.55;1632227;86;21004;-73
2022/10/21 11:10:35;;;;;;;14.77;9.47;;;;;;;8.69;62.56;101242.27;1631568;86;21066;-71
2022/10/21 11:13:12;;;;;;;11.47;7.83;;;;;;;8.70;62.04;101243.09;1631556;86;21439;-74
2022/10/21 11:16:04;;;;;;;12.65;7.08;;;;;;;8.72;62.33;101239.31;1660877;85;20987;-74
2022/10/21 11:18:47;;;;;;;6.40;3.80;;;;;;;8.76;61.57;101238.52;1655616;86;21097;-73
2022/10/21 11:21:44;;;;;;;6.13;5.17;;;;;;;8.79;60.39;101232.04;1660270;85;21120;-73
2022/10/21 11:24:44;;;;;;;7.40;4.63;;;;;;;8.77;60.30;101231.69;1654904;86;21090;-71
2022/10/21 11:28:05;;;;;;;7.00;4.40;;;;;;;8.79;60.65;101240.02;1679893;84;21059;-75
2022/10/21 11:30:55;;;;;;;4.47;3.50;;;;;;;8.76;60.39;101235.35;1675136;84;21065;-71
2022/10/21 11:33:47;;;;;;;3.80;2.43;;;;;;;8.73;59.32;101229.00;1676925;84;21046;-72
2022/10/21 11:36:24;;;;;;;5.10;3.10;;;;;;;8.71;59.42;101219.02;1678448;84;21098;-72
2022/10/21 11:39:33;;;;;;;8.73;3.17;;;;;;;8.72;58.84;101209.22;1672204;83;21035;-75
2022/10/21 11:42:22;;;;;;;3.30;3.00;;;;;;;8.70;59.38;101201.42;1686460;83;21171;-73
2022/10/21 11:45:24;;;;;;;2.30;1.20;;;;;;;8.73;59.46;101197.11;1678268;84;21058;-74
2022/10/21 11:48:32;;;;;;;2.50;0.50;;;;;;;8.75;57.93;101199.11;1677643;84;21212;-73
2022/10/21 11:51:46;;;;;;;2.07;0.47;;;;;;;8.76;57.47;101199.47;1677759;84;21090;-72
2022/10/21 11:54:56;;;;;;;1.53;0.90;;;;;;;8.75;56.42;101197.78;1677648;84;21063;-74
2022/10/21 11:57:28;;;;;;;1.60;1.50;;;;;;;8.69;57.16;101189.61;1654361;85;21142;-72
2022/10/21 12:00:13;;;;;;;2.20;1.80;;;;;;;8.79;57.44;101202.30;1685064;84;21480;-75